Time;durP1;ratioP1;P1;durP2;ratioP2;P2;SDS_P1;SDS_P2;PMS_P1;PMS_P2;Temp;Humidity;BMP_temperature;BMP_pressure;BME280_temperature;BME280_humidity;BME280_pressure;Samples;Min_cycle;Max_cycle;Signal;HPM_P1;HPM_P2
2021/08/28 00:00:50;;;;;;;15.35;10.48;;;410.00;2355.20;;;;;;5072326;28;20103;-60
2021/08/28 00:03:17;;;;;;;15.63;11.13;;;410.10;2355.20;;;;;;5072364;28;20115;-61
2021/08/28 00:05:43;;;;;;;15.52;11.18;;;410.10;2355.20;;;;;;5072018;28;20029;-60
2021/08/28 00:08:08;;;;;;;12.63;9.93;;;410.20;2355.20;;;;;;5072181;28;20028;-60
2021/08/28 00:10:34;;;;;;;13.40;9.68;;;410.20;2355.20;;;;;;5071975;28;20028;-61
2021/08/28 00:13:00;;;;;;;11.77;8.82;;;410.20;2355.20;;;;;;5072277;28;20032;-62
2021/08/28 00:15:26;;;;;;;14.93;9.60;;;410.20;2355.20;;;;;;5072123;28;20028;-60
2021/08/28 00:17:51;;;;;;;13.73;11.60;;;410.10;2355.20;;;;;;5071847;28;20028;-60
2021/08/28 00:20:17;;;;;;;15.52;11.13;;;410.10;2355.20;;;;;;5072321;28;20024;-62
2021/08/28 00:22:43;;;;;;;18.70;12.48;;;410.00;2355.20;;;;;;5071779;28;20020;-60
2021/08/28 00:25:10;;;;;;;14.30;11.30;;;409.90;2355.20;;;;;;5072127;28;20075;-61
2021/08/28 00:27:35;;;;;;;14.07;11.80;;;410.00;2355.20;;;;;;5071903;28;20027;-60
2021/08/28 00:30:02;;;;;;;17.63;13.38;;;410.10;2355.20;;;;;;5071801;28;20028;-62
2021/08/28 00:32:28;;;;;;;17.77;13.25;;;410.20;2355.20;;;;;;5071099;28;20085;-59
2021/08/28 00:34:53;;;;;;;19.40;15.07;;;410.20;2355.20;;;;;;5071297;28;20041;-61
2021/08/28 00:37:19;;;;;;;15.88;12.02;;;410.20;2355.20;;;;;;5071633;28;20119;-62
2021/08/28 00:39:45;;;;;;;15.98;11.32;;;410.10;2355.20;;;;;;5071727;28;20063;-61
2021/08/28 00:42:10;;;;;;;16.25;11.43;;;410.10;2355.20;;;;;;5071573;28;20108;-61
2021/08/28 00:44:38;;;;;;;16.50;12.68;;;410.20;2355.20;;;;;;5071609;28;20028;-60
2021/08/28 00:47:04;;;;;;;17.92;14.38;;;410.10;2355.20;;;;;;5071333;28;20037;-61
2021/08/28 00:49:29;;;;;;;17.35;13.93;;;410.10;2355.20;;;;;;5071506;28;20040;-62
2021/08/28 00:51:55;;;;;;;17.73;12.52;;;410.10;2355.20;;;;;;5071450;28;20070;-60
2021/08/28 00:54:21;;;;;;;21.77;15.32;;;410.20;2355.20;;;;;;5071035;28;20078;-61
2021/08/28 00:56:47;;;;;;;18.67;14.95;;;410.10;2355.20;;;;;;5071179;28;20040;-60
2021/08/28 00:59:14;;;;;;;19.98;15.70;;;410.00;2355.20;;;;;;5070914;28;20024;-62
2021/08/28 01:01:42;;;;;;;19.50;14.57;;;410.00;2355.20;;;;;;5071150;28;20029;-61
2021/08/28 01:04:15;;;;;;;19.73;15.90;;;410.10;2355.20;;;;;;5071138;28;20035;-60
2021/08/28 01:06:51;;;;;;;;;;;410.20;2355.20;;;;;;5071406;28;20428;-61
2021/08/28 01:09:21;;;;;;;23.48;15.73;;;410.20;2355.20;;;;;;5071022;28;19924;-60
2021/08/28 01:11:58;;;;;;;21.77;15.80;;;410.20;2355.20;;;;;;5071084;28;20025;-61
2021/08/28 01:14:26;;;;;;;20.20;14.75;;;410.20;2355.20;;;;;;5070736;28;20124;-59
2021/08/28 01:16:55;;;;;;;21.70;17.23;;;410.20;2355.20;;;;;;5070652;28;20421;-61
2021/08/28 01:19:35;;;;;;;24.10;16.20;;;410.20;2355.20;;;;;;5070882;28;20036;-60
2021/08/28 01:22:07;;;;;;;26.25;18.25;;;410.30;2355.20;;;;;;5070623;28;20021;-61
2021/08/28 01:24:35;;;;;;;28.45;21.10;;;410.20;2355.20;;;;;;5070401;28;20477;-60
2021/08/28 01:27:07;;;;;;;28.02;20.30;;;410.20;2355.20;;;;;;5070354;28;20374;-61
2021/08/28 01:29:34;;;;;;;22.67;17.27;;;410.20;2355.20;;;;;;5070275;28;20123;-61
2021/08/28 01:32:02;;;;;;;22.73;17.23;;;410.20;2355.20;;;;;;5070467;28;20038;-61
2021/08/28 01:34:30;;;;;;;21.75;17.65;;;410.30;2355.20;;;;;;5070715;28;20024;-60
2021/08/28 01:36:57;;;;;;;22.10;16.60;;;410.20;2355.20;;;;;;5070381;28;20031;-59
2021/08/28 01:39:24;;;;;;;22.20;16.90;;;410.30;2355.20;;;;;;5070336;28;20028;-60
2021/08/28 01:41:56;;;;;;;21.60;17.10;;;410.30;2355.20;;;;;;5070341;28;20051;-61
2021/08/28 01:44:24;;;;;;;21.05;16.80;;;410.30;2355.20;;;;;;5069291;28;20032;-61
2021/08/28 01:46:51;;;;;;;24.52;18.30;;;410.20;2355.20;;;;;;5070477;28;20020;-60
2021/08/28 01:49:17;;;;;;;22.15;16.42;;;410.10;2355.20;;;;;;5070443;28;20040;-60
2021/08/28 01:51:45;;;;;;;18.60;13.98;;;410.10;2355.20;;;;;;5070155;28;20455;-61
2021/08/28 01:54:11;;;;;;;25.25;14.50;;;410.00;2355.20;;;;;;5070151;28;20060;-61
2021/08/28 01:56:37;;;;;;;16.80;13.32;;;410.10;2355.20;;;;;;5069878;28;20475;-60
2021/08/28 01:59:04;;;;;;;16.77;13.95;;;410.00;2355.20;;;;;;5070174;28;20058;-61
2021/08/28 02:01:30;;;;;;;18.60;12.65;;;410.00;2355.20;;;;;;5070154;28;20107;-61
2021/08/28 02:03:56;;;;;;;20.58;14.80;;;410.00;2355.20;;;;;;5070440;28;20429;-60
2021/08/28 02:06:51;;;;;;;17.10;13.02;;;410.10;2355.20;;;;;;5069916;28;20020;-60
2021/08/28 02:09:23;;;;;;;20.38;15.07;;;410.10;2355.20;;;;;;5069639;28;20044;-61
2021/08/28 02:11:51;;;;;;;23.33;15.73;;;410.10;2355.20;;;;;;5070157;28;20062;-62
2021/08/28 02:14:21;;;;;;;20.65;14.93;;;410.20;2355.20;;;;;;5070247;28;20162;-60
2021/08/28 02:16:47;;;;;;;18.45;14.57;;;410.20;2355.20;;;;;;5070038;28;20017;-59
2021/08/28 02:19:21;;;;;;;21.73;14.23;;;410.10;2355.20;;;;;;5069970;28;20021;-62
2021/08/28 02:21:47;;;;;;;;;;;410.00;2355.20;;;;;;5070543;28;20025;-59
2021/08/28 02:24:18;;;;;;;18.10;13.07;;;409.90;2355.20;;;;;;5069622;28;19915;-60
2021/08/28 02:26:59;;;;;;;20.00;13.52;;;409.90;2355.20;;;;;;5069962;28;20113;-59
2021/08/28 02:29:33;;;;;;;17.38;13.88;;;409.80;2355.20;;;;;;5069654;28;20506;-60
2021/08/28 02:31:59;;;;;;;18.67;13.07;;;409.90;2355.20;;;;;;5069966;28;20039;-60
2021/08/28 02:34:28;;;;;;;19.13;13.32;;;410.00;2355.20;;;;;;5069616;28;20025;-63
2021/08/28 02:36:55;;;;;;;17.10;13.18;;;409.90;2355.20;;;;;;5069488;28;20029;-60
2021/08/28 02:39:22;;;;;;;17.88;13.85;;;409.90;2355.20;;;;;;5069796;28;20021;-60
2021/08/28 02:41:49;;;;;;;17.67;14.20;;;409.90;2355.20;;;;;;5069878;28;20029;-61
2021/08/28 02:44:16;;;;;;;22.80;14.80;;;409.90;2355.20;;;;;;5069805;28;20025;-60
2021/08/28 02:46:45;;;;;;;19.50;14.77;;;410.00;2355.20;;;;;;5069863;28;20035;-60
2021/08/28 02:49:13;;;;;;;18.80;15.23;;;410.00;2355.20;;;;;;5069723;28;20036;-60
2021/08/28 02:51:40;;;;;;;23.38;15.00;;;410.00;2355.20;;;;;;5070163;28;20025;-61
2021/08/28 02:54:10;;;;;;;19.27;14.77;;;410.00;2355.20;;;;;;5069836;28;20052;-60
2021/08/28 02:56:38;;;;;;;20.88;15.20;;;409.80;2355.20;;;;;;5072835;28;20024;-60
2021/08/28 02:59:04;;;;;;;17.48;13.88;;;409.90;2355.20;;;;;;5073399;28;20036;-60
2021/08/28 03:01:32;;;;;;;19.50;15.38;;;409.80;2355.20;;;;;;5073718;28;20020;-60
2021/08/28 03:03:58;;;;;;;17.52;13.77;;;409.90;2355.20;;;;;;5073633;28;20028;-60
2021/08/28 03:06:29;;;;;;;19.40;14.85;;;409.90;2355.20;;;;;;5073201;28;20032;-60
2021/08/28 03:08:56;;;;;;;21.33;14.63;;;409.70;2355.20;;;;;;5073057;28;20047;-60
2021/08/28 03:11:22;;;;;;;20.42;15.20;;;409.60;2355.20;;;;;;5073029;28;20028;-60
2021/08/28 03:13:48;;;;;;;20.65;15.70;;;409.70;2355.20;;;;;;5073223;28;20118;-59
2021/08/28 03:16:18;;;;;;;20.98;16.48;;;409.70;2355.20;;;;;;5072897;28;20496;-60
2021/08/28 03:18:46;;;;;;;17.70;15.13;;;409.80;2355.20;;;;;;5073014;28;20032;-60
2021/08/28 03:21:13;;;;;;;18.17;14.23;;;409.90;2355.20;;;;;;5073182;28;20071;-61
2021/08/28 03:23:43;;;;;;;19.63;15.30;;;409.90;2355.20;;;;;;5073345;28;20028;-60
2021/08/28 03:26:10;;;;;;;21.58;16.20;;;409.70;2355.20;;;;;;5073118;28;20029;-62
2021/08/28 03:28:37;;;;;;;20.90;15.40;;;409.80;2355.20;;;;;;5072802;28;20036;-61
2021/08/28 03:31:02;;;;;;;21.85;15.35;;;409.80;2355.20;;;;;;5072731;28;20025;-61
2021/08/28 03:33:29;;;;;;;16.88;14.88;;;409.80;2355.20;;;;;;5073001;28;20386;-60
2021/08/28 03:35:56;;;;;;;21.60;14.23;;;410.00;2355.20;;;;;;5072571;28;20021;-60
2021/08/28 03:38:22;;;;;;;21.52;15.80;;;409.90;2355.20;;;;;;5072824;28;20115;-62
2021/08/28 03:40:48;;;;;;;20.10;15.98;;;410.00;2355.20;;;;;;5072682;28;20032;-60
2021/08/28 03:43:14;;;;;;;22.23;16.70;;;410.00;2355.20;;;;;;5072564;28;20116;-60
2021/08/28 03:45:40;;;;;;;25.52;17.52;;;410.00;2355.20;;;;;;5072969;28;20024;-61
2021/08/28 03:48:07;;;;;;;20.80;16.75;;;410.00;2355.20;;;;;;5072405;28;20108;-59
2021/08/28 03:50:34;;;;;;;19.55;15.98;;;409.90;2355.20;;;;;;5072480;28;20030;-60
2021/08/28 03:52:59;;;;;;;19.38;15.25;;;409.90;2355.20;;;;;;5072618;28;20024;-60
2021/08/28 03:55:25;;;;;;;22.73;15.98;;;435.50;2355.20;;;;;;5072377;28;20028;-60
2021/08/28 03:57:51;;;;;;;21.27;16.40;;;410.00;2355.20;;;;;;5072356;28;20445;-61
2021/08/28 04:00:17;;;;;;;26.80;16.73;;;410.00;2355.20;;;;;;5072664;28;20475;-59
2021/08/28 04:02:42;;;;;;;23.80;18.83;;;410.10;2355.20;;;;;;5072138;28;20082;-61
2021/08/28 04:05:08;;;;;;;26.13;18.75;;;410.00;2355.20;;;;;;5072365;28;20344;-60
2021/08/28 04:07:39;;;;;;;23.83;19.00;;;409.80;2355.20;;;;;;5070892;28;20036;-60
2021/08/28 04:10:06;;;;;;;27.30;21.40;;;409.90;2355.20;;;;;;5071956;28;20037;-61
2021/08/28 04:12:31;;;;;;;34.80;22.40;;;409.90;2355.20;;;;;;5072153;28;20108;-61
2021/08/28 04:14:57;;;;;;;37.58;23.25;;;409.90;2355.20;;;;;;5072204;28;20506;-60
2021/08/28 04:17:24;;;;;;;32.97;23.35;;;409.70;2355.20;;;;;;5071913;28;20044;-60
2021/08/28 04:19:50;;;;;;;49.30;27.33;;;409.70;2355.20;;;;;;5072127;28;20050;-60
2021/08/28 04:22:15;;;;;;;42.10;28.15;;;409.90;2355.20;;;;;;5072034;28;20032;-60
2021/08/28 04:24:41;;;;;;;50.28;31.48;;;409.80;2355.20;;;;;;5071928;28;20020;-59
2021/08/28 04:27:07;;;;;;;54.92;33.10;;;409.70;2355.20;;;;;;5071924;28;20119;-59
2021/08/28 04:29:33;;;;;;;57.70;35.03;;;409.80;2355.20;;;;;;5071618;28;20482;-60
2021/08/28 04:31:59;;;;;;;53.78;31.40;;;409.70;2355.20;;;;;;5071873;28;20466;-59
2021/08/28 04:34:24;;;;;;;58.08;32.13;;;409.70;2355.20;;;;;;5071891;28;20021;-60
2021/08/28 04:36:50;;;;;;;61.63;34.72;;;409.80;2355.20;;;;;;5071620;28;20495;-60
2021/08/28 04:39:16;;;;;;;59.28;32.50;;;409.70;2355.20;;;;;;5071498;28;20052;-60
2021/08/28 04:41:42;;;;;;;59.00;32.55;;;409.80;2355.20;;;;;;5071603;28;20036;-60
2021/08/28 04:44:07;;;;;;;55.33;32.25;;;409.70;2355.20;;;;;;5071780;28;20373;-60
2021/08/28 04:46:33;;;;;;;62.63;33.50;;;409.80;2355.20;;;;;;5071490;28;20025;-60
2021/08/28 04:48:59;;;;;;;57.13;33.53;;;409.90;2355.20;;;;;;5071389;28;20033;-60
2021/08/28 04:51:25;;;;;;;62.90;34.40;;;409.90;2355.20;;;;;;5071238;28;20021;-60
2021/08/28 04:53:50;;;;;;;62.30;34.58;;;409.90;2355.20;;;;;;5071345;28;20470;-60
2021/08/28 04:56:16;;;;;;;66.15;36.10;;;409.90;2355.20;;;;;;5071248;28;20020;-61
2021/08/28 04:58:42;;;;;;;56.58;34.22;;;409.80;2355.20;;;;;;5071082;28;20135;-59
2021/08/28 05:01:07;;;;;;;66.03;36.22;;;409.80;2355.20;;;;;;5071295;28;20017;-60
2021/08/28 05:03:33;;;;;;;64.38;36.90;;;409.80;2355.20;;;;;;5071002;28;20064;-60
2021/08/28 05:05:59;;;;;;;68.85;36.55;;;409.90;2355.20;;;;;;5071008;28;20406;-60
2021/08/28 05:08:24;;;;;;;63.90;34.50;;;410.00;2355.20;;;;;;5071112;28;20059;-62
2021/08/28 05:10:50;;;;;;;65.00;34.97;;;410.00;2355.20;;;;;;5070846;28;20040;-61
2021/08/28 05:13:16;;;;;;;66.10;37.80;;;409.90;2355.20;;;;;;5070876;28;20032;-60
2021/08/28 05:15:42;;;;;;;69.13;36.80;;;409.80;2355.20;;;;;;5071046;28;20029;-61
2021/08/28 05:18:07;;;;;;;66.47;34.92;;;409.90;2355.20;;;;;;5070600;28;20025;-60
2021/08/28 05:20:34;;;;;;;70.47;36.35;;;409.80;2355.20;;;;;;5070858;28;20028;-61
2021/08/28 05:22:59;;;;;;;67.07;36.15;;;409.70;2355.20;;;;;;5070813;28;20048;-61
2021/08/28 05:25:25;;;;;;;75.80;39.08;;;409.90;2355.20;;;;;;5070580;28;20102;-60
2021/08/28 05:27:52;;;;;;;61.53;33.15;;;409.70;2355.20;;;;;;5070507;28;20041;-61
2021/08/28 05:30:18;;;;;;;59.03;33.15;;;409.80;2355.20;;;;;;5070858;28;20048;-60
2021/08/28 05:32:44;;;;;;;55.95;31.48;;;409.80;2355.20;;;;;;5070366;28;20056;-60
2021/08/28 05:35:11;;;;;;;60.10;32.55;;;409.90;2355.20;;;;;;5070450;28;20514;-59
2021/08/28 05:37:37;;;;;;;54.40;29.35;;;410.00;2355.20;;;;;;5070834;28;20033;-62
2021/08/28 05:40:06;;;;;;;57.33;31.05;;;410.00;2355.20;;;;;;5070293;28;20359;-59
2021/08/28 05:42:32;;;;;;;64.90;31.00;;;410.00;2355.20;;;;;;5070276;28;20035;-63
2021/08/28 05:44:58;;;;;;;63.20;32.38;;;410.10;2355.20;;;;;;5069152;28;20355;-62
2021/08/28 05:47:24;;;;;;;64.78;32.58;;;410.00;2355.20;;;;;;5070365;28;20039;-60
2021/08/28 05:49:49;;;;;;;56.97;31.30;;;409.80;2355.20;;;;;;5070240;28;20094;-60
2021/08/28 05:52:15;;;;;;;67.53;34.28;;;409.90;2355.20;;;;;;5070460;28;20455;-60
2021/08/28 05:54:41;;;;;;;63.25;34.85;;;409.80;2355.20;;;;;;5070377;28;20093;-61
2021/08/28 05:57:06;;;;;;;64.97;33.63;;;409.70;2355.20;;;;;;5069976;28;20491;-60
2021/08/28 05:59:32;;;;;;;59.45;33.95;;;409.80;2355.20;;;;;;5070394;28;20024;-59
2021/08/28 06:02:01;;;;;;;63.13;32.13;;;409.80;2355.20;;;;;;5070190;28;20024;-61
2021/08/28 06:04:26;;;;;;;71.57;36.08;;;409.90;2355.20;;;;;;5070134;28;20025;-62
2021/08/28 06:06:52;;;;;;;63.65;35.42;;;409.90;2355.20;;;;;;5070017;28;20036;-62
2021/08/28 06:09:18;;;;;;;62.13;33.17;;;409.80;2355.20;;;;;;5070287;28;20094;-60
2021/08/28 06:11:43;;;;;;;71.13;38.13;;;409.90;2355.20;;;;;;5069469;28;20097;-60
2021/08/28 06:14:09;;;;;;;72.68;36.75;;;409.80;2355.20;;;;;;5070349;28;20522;-61
2021/08/28 06:16:35;;;;;;;74.05;39.42;;;409.60;2355.20;;;;;;5072158;28;20008;-59
2021/08/28 06:19:00;;;;;;;80.25;40.28;;;409.60;2355.20;;;;;;5079231;28;20032;-61
2021/08/28 06:21:27;;;;;;;71.45;41.55;;;384.90;2329.60;;;;;;5076804;28;20137;-61
2021/08/28 06:23:52;;;;;;;66.63;38.60;;;409.80;2355.20;;;;;;5080281;28;20034;-62
2021/08/28 06:26:18;;;;;;;65.07;37.20;;;409.70;2355.20;;;;;;5074760;28;20029;-60
2021/08/28 06:28:44;;;;;;;56.67;35.53;;;409.70;2355.20;;;;;;5069788;28;20044;-59
2021/08/28 06:31:10;;;;;;;71.75;44.85;;;409.80;2355.20;;;;;;5072748;28;20653;-59
2021/08/28 06:33:36;;;;;;;68.70;37.40;;;410.00;2355.20;;;;;;5074093;28;20078;-60
2021/08/28 06:36:02;;;;;;;54.95;34.47;;;410.00;2355.20;;;;;;5073754;28;20360;-60
2021/08/28 06:38:27;;;;;;;56.67;36.00;;;410.00;2355.20;;;;;;5074078;28;20036;-59
2021/08/28 06:40:53;;;;;;;64.47;37.08;;;409.90;2355.20;;;;;;5073846;28;20038;-61
2021/08/28 06:43:19;;;;;;;64.75;38.67;;;409.90;2355.20;;;;;;5074099;28;20470;-58
2021/08/28 06:45:45;;;;;;;73.95;42.65;;;410.00;2355.20;;;;;;5073847;28;20029;-59
2021/08/28 06:48:10;;;;;;;73.93;47.10;;;410.00;2355.20;;;;;;5073859;28;20045;-60
2021/08/28 06:50:37;;;;;;;71.97;46.22;;;410.00;2355.20;;;;;;5073793;28;20052;-62
2021/08/28 06:53:03;;;;;;;77.82;48.35;;;410.00;2355.20;;;;;;5076208;28;20036;-59
2021/08/28 06:55:29;;;;;;;118.00;75.03;;;410.00;2355.20;;;;;;5083448;28;20031;-62
2021/08/28 06:57:55;;;;;;;85.70;53.15;;;410.10;2355.20;;;;;;5079294;28;20453;-60
2021/08/28 07:00:21;;;;;;;60.88;38.63;;;410.10;2355.20;;;;;;5073582;28;20035;-60
2021/08/28 07:02:47;;;;;;;50.85;31.30;;;410.10;2355.20;;;;;;5078998;28;20024;-59
2021/08/28 07:05:12;;;;;;;49.05;32.78;;;410.20;2355.20;;;;;;5081698;28;20047;-60
2021/08/28 07:07:38;;;;;;;58.33;39.65;;;410.30;2355.20;;;;;;5075722;28;20052;-61
2021/08/28 07:10:05;;;;;;;48.03;29.00;;;410.40;2355.20;;;;;;5073190;28;20040;-59
2021/08/28 07:12:30;;;;;;;42.63;27.08;;;410.50;2355.20;;;;;;5072956;28;20873;-59
2021/08/28 07:14:56;;;;;;;36.25;23.27;;;410.30;2355.20;;;;;;5073235;28;20052;-61
2021/08/28 07:17:22;;;;;;;48.15;30.38;;;410.20;2355.20;;;;;;5071724;28;20029;-59
2021/08/28 07:19:48;;;;;;;51.67;26.75;;;410.40;2355.20;;;;;;5072790;28;20107;-59
2021/08/28 07:22:13;;;;;;;51.22;27.60;;;410.30;2355.20;;;;;;5073022;28;20027;-59
2021/08/28 07:24:39;;;;;;;42.75;26.63;;;410.10;2355.20;;;;;;5073178;28;20025;-62
2021/08/28 07:27:05;;;;;;;47.45;27.67;;;410.30;2355.20;;;;;;5072646;28;20115;-59
2021/08/28 07:29:31;;;;;;;48.03;27.40;;;410.40;2355.20;;;;;;5072894;28;20127;-60
2021/08/28 07:31:57;;;;;;;40.30;24.25;;;410.30;2355.20;;;;;;5073128;28;20097;-59
2021/08/28 07:34:23;;;;;;;40.30;28.13;;;410.30;2355.20;;;;;;5072588;28;20071;-60
2021/08/28 07:36:49;;;;;;;46.28;29.00;;;410.30;2355.20;;;;;;5072634;28;20020;-59
2021/08/28 07:39:15;;;;;;;51.00;29.92;;;410.30;2355.20;;;;;;5070990;28;20044;-60
2021/08/28 07:41:40;;;;;;;42.17;26.23;;;410.50;2355.20;;;;;;5072676;28;20024;-59
2021/08/28 07:44:06;;;;;;;60.65;39.15;;;435.20;2355.20;;;;;;5072961;28;20115;-60
2021/08/28 07:46:32;;;;;;;52.47;33.22;;;435.20;2355.20;;;;;;5072569;28;20930;-60
2021/08/28 07:48:58;;;;;;;41.53;25.63;;;435.30;2355.20;;;;;;5072873;28;20056;-60
2021/08/28 07:51:24;;;;;;;90.15;71.10;;;435.50;2355.20;;;;;;5072341;28;20021;-59
2021/08/28 07:53:49;;;;;;;54.33;35.60;;;435.30;2355.20;;;;;;5072660;28;20051;-61
2021/08/28 07:56:17;;;;;;;47.00;30.42;;;435.20;2355.20;;;;;;5072157;28;20028;-59
2021/08/28 07:58:43;;;;;;;45.67;27.63;;;435.30;2355.20;;;;;;5072218;28;20055;-62
2021/08/28 08:01:11;;;;;;;42.95;26.85;;;435.30;2355.20;;;;;;5072536;28;20379;-62
2021/08/28 08:03:38;;;;;;;43.20;26.33;;;435.30;2355.20;;;;;;5070980;28;20139;-62
2021/08/28 08:06:04;;;;;;;43.35;26.17;;;435.50;2355.20;;;;;;5070129;28;20108;-62
2021/08/28 08:08:30;;;;;;;38.88;26.38;;;435.50;2355.20;;;;;;5070709;28;20123;-62
2021/08/28 08:10:55;;;;;;;37.78;24.38;;;435.60;2355.20;;;;;;5070876;28;20020;-62
2021/08/28 08:13:21;;;;;;;40.78;26.55;;;435.70;2355.20;;;;;;5070394;28;20446;-64
2021/08/28 08:15:47;;;;;;;35.28;25.05;;;435.70;2355.20;;;;;;5070573;28;20025;-62
2021/08/28 08:18:12;;;;;;;39.42;25.73;;;435.60;2355.20;;;;;;5069839;28;20024;-62
2021/08/28 08:20:38;;;;;;;42.92;27.67;;;435.80;2355.20;;;;;;5070638;28;20062;-62
2021/08/28 08:23:04;;;;;;;36.20;24.83;;;436.00;2355.20;;;;;;5070241;28;20029;-63
2021/08/28 08:25:30;;;;;;;37.85;26.10;;;436.10;2355.20;;;;;;5070459;28;20028;-62
2021/08/28 08:27:56;;;;;;;39.17;25.70;;;435.80;2355.20;;;;;;5070525;28;20029;-62
2021/08/28 08:30:22;;;;;;;41.00;25.90;;;436.10;2355.20;;;;;;5069822;28;20056;-63
2021/08/28 08:32:48;;;;;;;36.83;24.40;;;460.80;2380.80;;;;;;5070378;28;20051;-62
2021/08/28 08:35:13;;;;;;;31.55;23.17;;;461.10;2380.80;;;;;;5070124;28;20630;-65
2021/08/28 08:37:39;;;;;;;42.25;29.38;;;461.00;2380.80;;;;;;5070019;28;20047;-63
2021/08/28 08:40:05;;;;;;;58.60;41.38;;;461.10;2380.80;;;;;;5069904;28;20039;-63
2021/08/28 08:42:33;;;;;;;49.08;35.67;;;461.30;2380.80;;;;;;5069530;28;20109;-62
2021/08/28 08:44:59;;;;;;;34.78;25.40;;;461.60;2380.80;;;;;;5070023;28;20489;-62
2021/08/28 08:47:26;;;;;;;38.13;30.23;;;486.40;2380.80;;;;;;5070082;28;20112;-61
2021/08/28 08:49:53;;;;;;;45.60;30.25;;;461.50;2380.80;;;;;;5069381;28;20394;-63
2021/08/28 08:52:20;;;;;;;32.42;24.55;;;461.50;2380.80;;;;;;5069828;28;20035;-62
2021/08/28 08:54:48;;;;;;;32.70;23.75;;;486.40;2380.80;;;;;;5069842;28;20050;-62
2021/08/28 08:57:15;;;;;;;32.58;20.85;;;461.60;2380.80;;;;;;5068951;28;20054;-61
2021/08/28 08:59:41;;;;;;;31.33;21.38;;;461.40;2380.80;;;;;;5069047;28;20032;-65
2021/08/28 09:02:07;;;;;;;39.33;30.92;;;461.50;2380.80;;;;;;5069660;28;20482;-62
2021/08/28 09:04:33;;;;;;;23.95;18.65;;;461.50;2380.80;;;;;;5077449;28;20043;-62
2021/08/28 09:06:58;;;;;;;28.13;20.75;;;461.20;2380.80;;;;;;5084845;28;20364;-63
2021/08/28 09:09:24;;;;;;;27.13;18.52;;;461.50;2380.80;;;;;;5089017;28;20047;-63
2021/08/28 09:11:57;;;;;;;29.40;21.02;;;461.70;2380.80;;;;;;5089370;28;20073;-62
2021/08/28 09:14:23;;;;;;;35.67;27.75;;;461.50;2380.80;;;;;;5086064;28;20085;-62
2021/08/28 09:16:50;;;;;;;31.35;21.27;;;461.10;2380.80;;;;;;5089750;28;20651;-63
2021/08/28 09:19:16;;;;;;;23.95;18.05;;;461.00;2380.80;;;;;;5089325;28;20031;-62
2021/08/28 09:21:43;;;;;;;27.33;21.35;;;461.00;2380.80;;;;;;5089273;28;20378;-63
2021/08/28 09:24:11;;;;;;;34.63;25.58;;;460.90;2380.80;;;;;;5089128;28;20031;-63
2021/08/28 09:26:45;;;;;;;29.90;22.17;;;461.00;2380.80;;;;;;5089451;28;20637;-62
2021/08/28 09:29:13;;;;;;;29.92;22.30;;;460.80;2380.80;;;;;;5089431;28;20048;-62
2021/08/28 09:31:38;;;;;;;30.38;22.60;;;461.00;2380.80;;;;;;5089355;28;20016;-62
2021/08/28 09:34:23;;;;;;;31.95;22.88;;;461.10;2380.80;;;;;;5089060;28;20028;-61
2021/08/28 09:37:02;;;;;;;35.65;23.05;;;461.30;2380.80;;;;;;5088500;28;20035;-61
2021/08/28 09:39:44;;;;;;;30.65;21.45;;;461.50;2380.80;;;;;;5089439;28;20449;-64
2021/08/28 09:42:16;;;;;;;30.77;24.42;;;461.40;2380.80;;;;;;5089145;28;20121;-62
2021/08/28 09:44:44;;;;;;;31.13;23.52;;;461.50;2380.80;;;;;;5087480;28;20024;-60
2021/08/28 09:47:16;;;;;;;35.80;25.17;;;461.50;2380.80;;;;;;5079673;28;20068;-63
2021/08/28 09:49:47;;;;;;;35.03;24.95;;;461.50;2380.80;;;;;;5078704;28;20024;-62
2021/08/28 09:52:16;;;;;;;29.58;23.52;;;461.30;2380.80;;;;;;5078625;28;20123;-63
2021/08/28 09:54:42;;;;;;;29.15;20.45;;;461.20;2380.80;;;;;;5077408;28;20020;-61
2021/08/28 09:57:08;;;;;;;27.45;22.13;;;461.40;2380.80;;;;;;5075304;28;20048;-61
2021/08/28 09:59:34;;;;;;;29.60;21.92;;;461.40;2380.80;;;;;;5068018;28;20025;-63
2021/08/28 10:02:10;;;;;;;32.75;23.25;;;461.20;2380.80;;;;;;5067682;28;20489;-62
2021/08/28 10:04:57;;;;;;;24.15;19.50;;;461.20;2380.80;;;;;;5067629;28;20029;-62
2021/08/28 10:07:31;;;;;;;23.35;18.85;;;461.40;2380.80;;;;;;5068644;28;20064;-62
2021/08/28 10:10:05;;;;;;;30.25;20.42;;;461.70;2380.80;;;;;;5068546;28;20481;-63
2021/08/28 10:12:33;;;;;;;31.45;21.63;;;486.40;2380.80;;;;;;5068376;28;20048;-63
2021/08/28 10:15:01;;;;;;;31.73;22.30;;;486.60;2380.80;;;;;;5068300;28;20421;-63
2021/08/28 10:17:27;;;;;;;24.55;18.67;;;486.90;2380.80;;;;;;5068397;28;20028;-61
2021/08/28 10:19:57;;;;;;;23.38;16.65;;;487.00;2380.80;;;;;;5068373;28;20043;-62
2021/08/28 10:22:34;;;;;;;23.95;18.33;;;512.40;2380.80;;;;;;5068318;28;20524;-62
2021/08/28 10:25:04;;;;;;;19.60;14.63;;;512.90;2380.80;;;;;;5068541;28;20104;-61
2021/08/28 10:27:30;;;;;;;23.48;16.92;;;512.50;2380.80;;;;;;5067544;28;20028;-61
2021/08/28 10:29:56;;;;;;;19.80;14.88;;;512.60;2380.80;;;;;;5067729;28;20037;-61
2021/08/28 10:32:23;;;;;;;18.38;14.85;;;512.70;2380.80;;;;;;5068019;28;20071;-62
2021/08/28 10:34:49;;;;;;;20.15;15.85;;;512.60;2380.80;;;;;;5068275;28;20056;-62
2021/08/28 10:37:15;;;;;;;21.48;16.38;;;512.30;2380.80;;;;;;5068049;28;20041;-61
2021/08/28 10:39:43;;;;;;;18.15;14.35;;;512.20;2380.80;;;;;;5068066;28;20032;-62
2021/08/28 10:42:11;;;;;;;18.30;14.07;;;487.30;2380.80;;;;;;5067561;28;20450;-62
2021/08/28 10:44:37;;;;;;;19.90;15.50;;;487.20;2380.80;;;;;;5068346;28;20056;-62
2021/08/28 10:47:23;;;;;;;16.70;13.90;;;512.00;2380.80;;;;;;5067947;28;20028;-61
2021/08/28 10:49:52;;;;;;;17.98;13.90;;;512.20;2380.80;;;;;;5067698;28;20040;-62
2021/08/28 10:52:23;;;;;;;15.85;12.05;;;487.30;2380.80;;;;;;5068018;28;20024;-61
2021/08/28 10:55:02;;;;;;;17.13;12.23;;;512.10;2380.80;;;;;;5067707;28;20041;-62
2021/08/28 10:57:28;;;;;;;19.00;12.77;;;487.20;2380.80;;;;;;5067701;28;20299;-61
2021/08/28 11:00:04;;;;;;;19.42;14.65;;;487.30;2380.80;;;;;;5068095;28;20029;-62
2021/08/28 11:02:56;;;;;;;18.65;14.13;;;512.20;2380.80;;;;;;5071550;28;20158;-63
2021/08/28 11:05:32;;;;;;;17.48;13.80;;;512.50;2380.80;;;;;;5077457;28;20032;-61
2021/08/28 11:08:14;;;;;;;21.77;15.85;;;512.90;2380.80;;;;;;5076469;28;20032;-62
2021/08/28 11:10:40;;;;;;;21.40;16.25;;;512.90;2380.80;;;;;;5077190;28;20052;-61
2021/08/28 11:13:07;;;;;;;16.98;14.85;;;512.90;2380.80;;;;;;5077301;28;20410;-61
2021/08/28 11:15:33;;;;;;;20.05;15.98;;;512.90;2380.80;;;;;;5075754;28;20021;-60
2021/08/28 11:18:08;;;;;;;19.10;14.43;;;512.80;2380.80;;;;;;5071709;28;20495;-62
2021/08/28 11:20:35;;;;;;;24.65;15.73;;;512.50;2380.80;;;;;;5071278;28;20056;-61
2021/08/28 11:23:06;;;;;;;22.75;17.08;;;512.70;2380.80;;;;;;5073310;28;20100;-62
2021/08/28 11:25:34;;;;;;;18.85;15.00;;;512.70;2380.80;;;;;;5071862;28;20459;-62
2021/08/28 11:28:03;;;;;;;23.67;17.25;;;512.90;2380.80;;;;;;5071355;28;20489;-66
2021/08/28 11:30:55;;;;;;;22.02;16.42;;;512.90;2380.80;;;;;;5072896;28;20044;-62
2021/08/28 11:33:26;;;;;;;27.35;18.98;;;537.60;2406.40;;;;;;5030908;28;20120;-62
2021/08/28 11:35:54;;;;;;;27.92;19.23;;;512.60;2380.80;;;;;;5030579;28;20064;-63
2021/08/28 11:38:23;;;;;;;24.15;20.33;;;512.90;2380.80;;;;;;5030879;28;20034;-62
2021/08/28 11:41:12;;;;;;;23.75;17.20;;;512.80;2380.80;;;;;;5030667;28;20021;-62
2021/08/28 11:43:40;;;;;;;23.20;16.95;;;537.90;2406.40;;;;;;5030605;28;20091;-62
2021/08/28 11:46:26;;;;;;;24.13;17.33;;;537.80;2406.40;;;;;;5029533;28;20025;-61
2021/08/28 11:48:52;;;;;;;23.35;18.30;;;538.30;2406.40;;;;;;5030207;28;20103;-61
2021/08/28 11:51:26;;;;;;;23.42;16.40;;;538.40;2406.40;;;;;;5030767;28;20145;-61
2021/08/28 11:53:57;;;;;;;24.50;18.45;;;538.50;2406.40;;;;;;5030312;28;20116;-62
2021/08/28 11:56:30;;;;;;;23.10;17.02;;;538.40;2406.40;;;;;;5030450;28;20225;-61
2021/08/28 11:59:00;;;;;;;21.63;17.85;;;563.20;2432.00;;;;;;5030451;28;20115;-62
2021/08/28 12:01:39;;;;;;;20.67;15.18;;;563.20;2432.00;;;;;;5030531;28;20041;-61